sensor_id;sensor_type;location;lat;lon;timestamp;temperature;humidity
20911;DHT22;10615;42.702;23.314;2024-02-14T00:00:18;8.20;91.60
20911;DHT22;10615;42.702;23.314;2024-02-14T00:01:19;8.10;91.60
20911;DHT22;10615;42.702;23.314;2024-02-14T00:02:20;8.10;91.60
20911;DHT22;10615;42.702;23.314;2024-02-14T00:03:21;8.10;91.60
20911;DHT22;10615;42.702;23.314;2024-02-14T00:04:23;8.10;91.50
20911;DHT22;10615;42.702;23.314;2024-02-14T00:05:24;8.00;91.60
20911;DHT22;10615;42.702;23.314;2024-02-14T00:06:26;8.00;91.60
20911;DHT22;10615;42.702;23.314;2024-02-14T00:07:27;8.00;92.10
20911;DHT22;10615;42.702;23.314;2024-02-14T00:08:28;8.00;91.70
20911;DHT22;10615;42.702;23.314;2024-02-14T00:09:29;8.00;91.80
20911;DHT22;10615;42.702;23.314;2024-02-14T00:10:30;7.90;91.80
20911;DHT22;10615;42.702;23.314;2024-02-14T00:11:30;7.90;91.80
20911;DHT22;10615;42.702;23.314;2024-02-14T00:12:36;7.90;91.90
20911;DHT22;10615;42.702;23.314;2024-02-14T00:13:37;7.90;91.90
20911;DHT22;10615;42.702;23.314;2024-02-14T00:14:38;8.00;91.90
20911;DHT22;10615;42.702;23.314;2024-02-14T00:15:40;8.00;91.90
20911;DHT22;10615;42.702;23.314;2024-02-14T00:16:40;8.00;91.90
20911;DHT22;10615;42.702;23.314;2024-02-14T00:17:42;8.00;91.90
20911;DHT22;10615;42.702;23.314;2024-02-14T00:18:43;8.00;91.90
20911;DHT22;10615;42.702;23.314;2024-02-14T00:19:44;8.00;91.80
20911;DHT22;10615;42.702;23.314;2024-02-14T00:20:45;8.00;91.80
20911;DHT22;10615;42.702;23.314;2024-02-14T00:21:45;8.00;91.80
20911;DHT22;10615;42.702;23.314;2024-02-14T00:22:46;8.00;91.70
20911;DHT22;10615;42.702;23.314;2024-02-14T00:23:47;7.90;91.70
20911;DHT22;10615;42.702;23.314;2024-02-14T00:24:48;8.00;91.80
20911;DHT22;10615;42.702;23.314;2024-02-14T00:25:48;8.00;91.90
20911;DHT22;10615;42.702;23.314;2024-02-14T00:26:50;7.90;91.90
20911;DHT22;10615;42.702;23.314;2024-02-14T00:27:51;7.90;91.90
20911;DHT22;10615;42.702;23.314;2024-02-14T00:28:52;8.00;91.90
20911;DHT22;10615;42.702;23.314;2024-02-14T00:29:52;8.00;91.90
20911;DHT22;10615;42.702;23.314;2024-02-14T00:30:54;8.00;91.90
20911;DHT22;10615;42.702;23.314;2024-02-14T00:31:55;8.00;91.90
20911;DHT22;10615;42.702;23.314;2024-02-14T00:32:56;8.00;91.90
20911;DHT22;10615;42.702;23.314;2024-02-14T00:33:56;8.00;91.90
20911;DHT22;10615;42.702;23.314;2024-02-14T00:34:57;8.00;91.90
20911;DHT22;10615;42.702;23.314;2024-02-14T00:35:58;8.10;91.90
20911;DHT22;10615;42.702;23.314;2024-02-14T00:36:59;8.10;91.80
20911;DHT22;10615;42.702;23.314;2024-02-14T00:38:00;8.00;91.60
20911;DHT22;10615;42.702;23.314;2024-02-14T00:39:00;8.00;91.60
20911;DHT22;10615;42.702;23.314;2024-02-14T00:40:02;8.00;91.70
20911;DHT22;10615;42.702;23.314;2024-02-14T00:41:03;8.00;91.70
20911;DHT22;10615;42.702;23.314;2024-02-14T00:42:04;8.00;91.70
20911;DHT22;10615;42.702;23.314;2024-02-14T00:43:04;8.00;91.70
20911;DHT22;10615;42.702;23.314;2024-02-14T00:44:05;8.00;91.70
20911;DHT22;10615;42.702;23.314;2024-02-14T00:45:06;8.00;91.70
20911;DHT22;10615;42.702;23.314;2024-02-14T00:46:16;8.00;91.80
20911;DHT22;10615;42.702;23.314;2024-02-14T00:47:17;8.00;91.70
20911;DHT22;10615;42.702;23.314;2024-02-14T00:48:18;8.00;91.80
20911;DHT22;10615;42.702;23.314;2024-02-14T00:49:19;8.00;91.80
20911;DHT22;10615;42.702;23.314;2024-02-14T00:50:20;8.00;91.70
20911;DHT22;10615;42.702;23.314;2024-02-14T00:51:21;8.10;91.70
20911;DHT22;10615;42.702;23.314;2024-02-14T00:52:22;8.00;91.70
20911;DHT22;10615;42.702;23.314;2024-02-14T00:53:23;8.10;91.70
20911;DHT22;10615;42.702;23.314;2024-02-14T00:54:24;8.00;91.60
20911;DHT22;10615;42.702;23.314;2024-02-14T00:55:25;8.00;91.60
20911;DHT22;10615;42.702;23.314;2024-02-14T00:56:25;8.00;91.60
20911;DHT22;10615;42.702;23.314;2024-02-14T00:57:26;8.00;91.60
20911;DHT22;10615;42.702;23.314;2024-02-14T00:58:27;8.00;91.60
20911;DHT22;10615;42.702;23.314;2024-02-14T00:59:28;8.10;91.60
20911;DHT22;10615;42.702;23.314;2024-02-14T01:00:28;8.00;91.60
20911;DHT22;10615;42.702;23.314;2024-02-14T01:01:29;8.10;91.60
20911;DHT22;10615;42.702;23.314;2024-02-14T01:02:30;8.10;91.60
20911;DHT22;10615;42.702;23.314;2024-02-14T01:03:31;8.10;91.60
20911;DHT22;10615;42.702;23.314;2024-02-14T01:04:32;8.10;91.50
20911;DHT22;10615;42.702;23.314;2024-02-14T01:05:33;8.20;91.50
20911;DHT22;10615;42.702;23.314;2024-02-14T01:06:33;8.10;91.40
20911;DHT22;10615;42.702;23.314;2024-02-14T01:07:34;8.10;91.40
20911;DHT22;10615;42.702;23.314;2024-02-14T01:08:35;8.10;91.30
20911;DHT22;10615;42.702;23.314;2024-02-14T01:09:36;8.10;91.30
20911;DHT22;10615;42.702;23.314;2024-02-14T01:10:38;8.10;91.30
20911;DHT22;10615;42.702;23.314;2024-02-14T01:11:38;8.10;91.30
20911;DHT22;10615;42.702;23.314;2024-02-14T01:12:39;8.10;91.20
20911;DHT22;10615;42.702;23.314;2024-02-14T01:13:40;8.10;91.20
20911;DHT22;10615;42.702;23.314;2024-02-14T01:14:42;8.10;91.30
20911;DHT22;10615;42.702;23.314;2024-02-14T01:15:42;8.10;91.30
20911;DHT22;10615;42.702;23.314;2024-02-14T01:16:44;8.10;91.30
20911;DHT22;10615;42.702;23.314;2024-02-14T01:17:45;8.10;91.30
20911;DHT22;10615;42.702;23.314;2024-02-14T01:18:47;8.10;91.40
20911;DHT22;10615;42.702;23.314;2024-02-14T01:19:48;8.10;91.40
20911;DHT22;10615;42.702;23.314;2024-02-14T01:20:49;8.10;91.30
20911;DHT22;10615;42.702;23.314;2024-02-14T01:21:50;8.10;91.30
20911;DHT22;10615;42.702;23.314;2024-02-14T01:22:51;8.10;91.20
20911;DHT22;10615;42.702;23.314;2024-02-14T01:23:51;8.10;91.10
20911;DHT22;10615;42.702;23.314;2024-02-14T01:24:52;8.10;91.10
20911;DHT22;10615;42.702;23.314;2024-02-14T01:25:54;8.20;91.20
20911;DHT22;10615;42.702;23.314;2024-02-14T01:26:56;8.20;91.20
20911;DHT22;10615;42.702;23.314;2024-02-14T01:27:56;8.20;91.10
20911;DHT22;10615;42.702;23.314;2024-02-14T01:28:57;8.20;91.10
20911;DHT22;10615;42.702;23.314;2024-02-14T01:30:01;8.20;91.10
20911;DHT22;10615;42.702;23.314;2024-02-14T01:31:02;8.20;91.10
20911;DHT22;10615;42.702;23.314;2024-02-14T01:32:03;8.20;91.10
20911;DHT22;10615;42.702;23.314;2024-02-14T01:33:04;8.20;91.10
20911;DHT22;10615;42.702;23.314;2024-02-14T01:34:05;8.20;91.10
20911;DHT22;10615;42.702;23.314;2024-02-14T01:35:06;8.20;91.00
20911;DHT22;10615;42.702;23.314;2024-02-14T01:36:07;8.20;91.00
20911;DHT22;10615;42.702;23.314;2024-02-14T01:37:08;8.20;91.00
20911;DHT22;10615;42.702;23.314;2024-02-14T01:38:10;8.20;90.90
20911;DHT22;10615;42.702;23.314;2024-02-14T01:39:13;8.20;90.80
20911;DHT22;10615;42.702;23.314;2024-02-14T01:40:14;8.20;90.70
20911;DHT22;10615;42.702;23.314;2024-02-14T01:41:15;8.20;90.80
20911;DHT22;10615;42.702;23.314;2024-02-14T01:42:16;8.10;90.70
20911;DHT22;10615;42.702;23.314;2024-02-14T01:43:17;8.10;90.80
20911;DHT22;10615;42.702;23.314;2024-02-14T01:44:18;8.10;90.80
20911;DHT22;10615;42.702;23.314;2024-02-14T01:45:19;8.10;90.80
20911;DHT22;10615;42.702;23.314;2024-02-14T01:46:20;8.10;90.80
20911;DHT22;10615;42.702;23.314;2024-02-14T01:47:21;8.10;90.90
20911;DHT22;10615;42.702;23.314;2024-02-14T01:48:22;8.10;90.90
20911;DHT22;10615;42.702;23.314;2024-02-14T01:49:22;8.10;90.80
20911;DHT22;10615;42.702;23.314;2024-02-14T01:50:23;8.10;90.80
20911;DHT22;10615;42.702;23.314;2024-02-14T01:51:30;8.10;90.90
20911;DHT22;10615;42.702;23.314;2024-02-14T01:52:32;8.10;90.90
20911;DHT22;10615;42.702;23.314;2024-02-14T01:53:33;8.10;90.90
20911;DHT22;10615;42.702;23.314;2024-02-14T01:54:35;8.10;90.90
20911;DHT22;10615;42.702;23.314;2024-02-14T01:55:36;8.10;90.90
20911;DHT22;10615;42.702;23.314;2024-02-14T01:56:37;8.10;90.90
20911;DHT22;10615;42.702;23.314;2024-02-14T01:57:38;8.10;90.90
20911;DHT22;10615;42.702;23.314;2024-02-14T01:58:40;8.10;90.90
20911;DHT22;10615;42.702;23.314;2024-02-14T01:59:40;8.20;91.00
20911;DHT22;10615;42.702;23.314;2024-02-14T02:00:41;8.20;90.90
20911;DHT22;10615;42.702;23.314;2024-02-14T02:01:43;8.20;90.90
20911;DHT22;10615;42.702;23.314;2024-02-14T02:02:44;8.20;90.90
20911;DHT22;10615;42.702;23.314;2024-02-14T02:03:45;8.20;90.80
20911;DHT22;10615;42.702;23.314;2024-02-14T02:04:46;8.20;90.80
20911;DHT22;10615;42.702;23.314;2024-02-14T02:05:47;8.20;90.80
20911;DHT22;10615;42.702;23.314;2024-02-14T02:06:48;8.30;90.80
20911;DHT22;10615;42.702;23.314;2024-02-14T02:07:49;8.20;90.70
20911;DHT22;10615;42.702;23.314;2024-02-14T02:08:50;8.20;90.70
20911;DHT22;10615;42.702;23.314;2024-02-14T02:09:51;8.20;90.70
20911;DHT22;10615;42.702;23.314;2024-02-14T02:10:51;8.20;90.60
20911;DHT22;10615;42.702;23.314;2024-02-14T02:11:53;8.20;90.60
20911;DHT22;10615;42.702;23.314;2024-02-14T02:12:59;8.20;90.60
20911;DHT22;10615;42.702;23.314;2024-02-14T02:14:03;8.20;90.60
20911;DHT22;10615;42.702;23.314;2024-02-14T02:15:08;8.20;90.60
20911;DHT22;10615;42.702;23.314;2024-02-14T02:16:13;8.10;90.50
20911;DHT22;10615;42.702;23.314;2024-02-14T02:17:15;8.10;90.60
20911;DHT22;10615;42.702;23.314;2024-02-14T02:18:18;8.10;90.60
20911;DHT22;10615;42.702;23.314;2024-02-14T02:19:19;8.10;90.60
20911;DHT22;10615;42.702;23.314;2024-02-14T02:20:20;8.10;90.70
20911;DHT22;10615;42.702;23.314;2024-02-14T02:21:21;8.10;90.70
20911;DHT22;10615;42.702;23.314;2024-02-14T02:22:24;8.10;90.80
20911;DHT22;10615;42.702;23.314;2024-02-14T02:23:25;8.10;90.80
20911;DHT22;10615;42.702;23.314;2024-02-14T02:24:26;8.10;90.70
20911;DHT22;10615;42.702;23.314;2024-02-14T02:25:26;8.20;90.70
20911;DHT22;10615;42.702;23.314;2024-02-14T02:26:27;8.10;90.60
20911;DHT22;10615;42.702;23.314;2024-02-14T02:27:28;8.10;90.50
20911;DHT22;10615;42.702;23.314;2024-02-14T02:28:29;8.10;90.50
20911;DHT22;10615;42.702;23.314;2024-02-14T02:29:29;8.10;90.60
20911;DHT22;10615;42.702;23.314;2024-02-14T02:30:33;8.10;90.50
20911;DHT22;10615;42.702;23.314;2024-02-14T02:31:35;8.10;90.50
20911;DHT22;10615;42.702;23.314;2024-02-14T02:32:37;8.10;90.50
20911;DHT22;10615;42.702;23.314;2024-02-14T02:33:38;8.20;90.60
20911;DHT22;10615;42.702;23.314;2024-02-14T02:34:38;8.20;90.50
20911;DHT22;10615;42.702;23.314;2024-02-14T02:35:41;8.20;90.50
20911;DHT22;10615;42.702;23.314;2024-02-14T02:36:42;8.20;90.40
20911;DHT22;10615;42.702;23.314;2024-02-14T02:37:44;8.20;90.40
20911;DHT22;10615;42.702;23.314;2024-02-14T02:38:46;8.20;90.30
20911;DHT22;10615;42.702;23.314;2024-02-14T02:39:46;8.20;90.30
20911;DHT22;10615;42.702;23.314;2024-02-14T02:40:47;8.20;90.20
20911;DHT22;10615;42.702;23.314;2024-02-14T02:41:48;8.20;90.20
20911;DHT22;10615;42.702;23.314;2024-02-14T02:42:50;8.20;90.10
20911;DHT22;10615;42.702;23.314;2024-02-14T02:43:51;8.20;90.10
20911;DHT22;10615;42.702;23.314;2024-02-14T02:44:53;8.10;90.10
20911;DHT22;10615;42.702;23.314;2024-02-14T02:45:54;8.10;90.10
20911;DHT22;10615;42.702;23.314;2024-02-14T02:46:55;8.10;90.10
20911;DHT22;10615;42.702;23.314;2024-02-14T02:47:56;8.10;90.20
20911;DHT22;10615;42.702;23.314;2024-02-14T02:48:57;8.10;90.20
20911;DHT22;10615;42.702;23.314;2024-02-14T02:49:58;8.10;90.30
20911;DHT22;10615;42.702;23.314;2024-02-14T02:51:01;8.10;90.20
20911;DHT22;10615;42.702;23.314;2024-02-14T02:52:02;8.10;90.30
20911;DHT22;10615;42.702;23.314;2024-02-14T02:53:03;8.10;90.20
20911;DHT22;10615;42.702;23.314;2024-02-14T02:54:04;8.10;90.20
20911;DHT22;10615;42.702;23.314;2024-02-14T02:55:05;8.10;90.20
20911;DHT22;10615;42.702;23.314;2024-02-14T02:56:06;8.10;90.20
20911;DHT22;10615;42.702;23.314;2024-02-14T02:57:07;8.10;90.20
20911;DHT22;10615;42.702;23.314;2024-02-14T02:58:09;8.10;90.10
20911;DHT22;10615;42.702;23.314;2024-02-14T02:59:09;8.00;90.10
20911;DHT22;10615;42.702;23.314;2024-02-14T03:00:11;8.10;90.20
20911;DHT22;10615;42.702;23.314;2024-02-14T03:01:16;8.10;90.20
20911;DHT22;10615;42.702;23.314;2024-02-14T03:02:17;8.10;90.20
20911;DHT22;10615;42.702;23.314;2024-02-14T03:03:19;8.10;90.10
20911;DHT22;10615;42.702;23.314;2024-02-14T03:04:20;8.10;90.10
20911;DHT22;10615;42.702;23.314;2024-02-14T03:05:21;8.10;90.00
20911;DHT22;10615;42.702;23.314;2024-02-14T03:06:23;8.00;90.00
20911;DHT22;10615;42.702;23.314;2024-02-14T03:07:24;8.00;90.00
20911;DHT22;10615;42.702;23.314;2024-02-14T03:08:25;8.00;90.00
20911;DHT22;10615;42.702;23.314;2024-02-14T03:09:26;8.00;90.00
20911;DHT22;10615;42.702;23.314;2024-02-14T03:10:28;8.10;90.00
20911;DHT22;10615;42.702;23.314;2024-02-14T03:11:30;8.10;90.00
20911;DHT22;10615;42.702;23.314;2024-02-14T03:12:31;8.10;90.10
20911;DHT22;10615;42.702;23.314;2024-02-14T03:13:33;8.10;90.00
20911;DHT22;10615;42.702;23.314;2024-02-14T03:14:34;8.10;90.00
20911;DHT22;10615;42.702;23.314;2024-02-14T03:15:35;8.10;90.00
20911;DHT22;10615;42.702;23.314;2024-02-14T03:16:36;8.10;89.90
20911;DHT22;10615;42.702;23.314;2024-02-14T03:17:38;8.10;89.90
20911;DHT22;10615;42.702;23.314;2024-02-14T03:18:38;8.10;89.80
20911;DHT22;10615;42.702;23.314;2024-02-14T03:19:40;8.10;89.80
20911;DHT22;10615;42.702;23.314;2024-02-14T03:20:41;8.20;89.80
20911;DHT22;10615;42.702;23.314;2024-02-14T03:21:41;8.20;89.70
20911;DHT22;10615;42.702;23.314;2024-02-14T03:22:44;8.20;89.50
20911;DHT22;10615;42.702;23.314;2024-02-14T03:23:47;8.10;89.30
20911;DHT22;10615;42.702;23.314;2024-02-14T03:24:49;8.10;89.40
20911;DHT22;10615;42.702;23.314;2024-02-14T03:25:50;8.10;89.40
20911;DHT22;10615;42.702;23.314;2024-02-14T03:26:52;8.10;89.40
20911;DHT22;10615;42.702;23.314;2024-02-14T03:27:54;8.10;89.40
20911;DHT22;10615;42.702;23.314;2024-02-14T03:28:54;8.10;89.40
20911;DHT22;10615;42.702;23.314;2024-02-14T03:29:55;8.10;89.40
20911;DHT22;10615;42.702;23.314;2024-02-14T03:30:59;8.10;89.40
20911;DHT22;10615;42.702;23.314;2024-02-14T03:31:59;8.10;89.40
20911;DHT22;10615;42.702;23.314;2024-02-14T03:33:05;8.10;89.40
20911;DHT22;10615;42.702;23.314;2024-02-14T03:34:06;8.10;89.40
20911;DHT22;10615;42.702;23.314;2024-02-14T03:35:07;8.10;89.40
20911;DHT22;10615;42.702;23.314;2024-02-14T03:36:07;8.00;89.20
20911;DHT22;10615;42.702;23.314;2024-02-14T03:37:10;8.00;89.40
20911;DHT22;10615;42.702;23.314;2024-02-14T03:38:11;8.00;89.40
20911;DHT22;10615;42.702;23.314;2024-02-14T03:39:12;8.00;89.50
20911;DHT22;10615;42.702;23.314;2024-02-14T03:40:12;8.00;89.50
20911;DHT22;10615;42.702;23.314;2024-02-14T03:41:13;8.00;89.60
20911;DHT22;10615;42.702;23.314;2024-02-14T03:42:14;8.00;89.70
20911;DHT22;10615;42.702;23.314;2024-02-14T03:43:17;7.90;89.70
20911;DHT22;10615;42.702;23.314;2024-02-14T03:44:18;8.00;89.80
20911;DHT22;10615;42.702;23.314;2024-02-14T03:45:18;8.00;89.90
20911;DHT22;10615;42.702;23.314;2024-02-14T03:46:19;8.00;90.00
20911;DHT22;10615;42.702;23.314;2024-02-14T03:47:21;8.00;90.30
20911;DHT22;10615;42.702;23.314;2024-02-14T03:48:23;8.00;90.00
20911;DHT22;10615;42.702;23.314;2024-02-14T03:49:24;8.10;89.80
20911;DHT22;10615;42.702;23.314;2024-02-14T03:50:26;8.10;89.60
20911;DHT22;10615;42.702;23.314;2024-02-14T03:51:27;8.10;89.50
20911;DHT22;10615;42.702;23.314;2024-02-14T03:52:28;8.10;89.50
20911;DHT22;10615;42.702;23.314;2024-02-14T03:53:28;8.10;89.40
20911;DHT22;10615;42.702;23.314;2024-02-14T03:54:29;8.10;89.30
20911;DHT22;10615;42.702;23.314;2024-02-14T03:55:30;8.20;89.30
20911;DHT22;10615;42.702;23.314;2024-02-14T03:56:31;8.20;89.20
20911;DHT22;10615;42.702;23.314;2024-02-14T03:57:33;8.20;89.20
20911;DHT22;10615;42.702;23.314;2024-02-14T03:58:35;8.20;89.00
20911;DHT22;10615;42.702;23.314;2024-02-14T03:59:37;8.20;88.90
20911;DHT22;10615;42.702;23.314;2024-02-14T04:00:39;8.20;88.80
20911;DHT22;10615;42.702;23.314;2024-02-14T04:01:46;8.20;88.50
20911;DHT22;10615;42.702;23.314;2024-02-14T04:02:48;8.20;88.40
20911;DHT22;10615;42.702;23.314;2024-02-14T04:03:49;8.20;88.20
20911;DHT22;10615;42.702;23.314;2024-02-14T04:04:50;8.20;88.20
20911;DHT22;10615;42.702;23.314;2024-02-14T04:05:51;8.20;88.20
20911;DHT22;10615;42.702;23.314;2024-02-14T04:06:52;8.20;88.20
20911;DHT22;10615;42.702;23.314;2024-02-14T04:07:53;8.20;88.20
20911;DHT22;10615;42.702;23.314;2024-02-14T04:08:54;8.10;88.20
20911;DHT22;10615;42.702;23.314;2024-02-14T04:09:55;8.10;88.20
20911;DHT22;10615;42.702;23.314;2024-02-14T04:10:56;8.10;88.20
20911;DHT22;10615;42.702;23.314;2024-02-14T04:11:57;8.10;88.10
20911;DHT22;10615;42.702;23.314;2024-02-14T04:12:58;8.10;88.10
20911;DHT22;10615;42.702;23.314;2024-02-14T04:13:58;8.00;88.00
20911;DHT22;10615;42.702;23.314;2024-02-14T04:14:59;8.00;88.10
20911;DHT22;10615;42.702;23.314;2024-02-14T04:16:00;8.00;88.10
20911;DHT22;10615;42.702;23.314;2024-02-14T04:17:01;7.90;88.10
20911;DHT22;10615;42.702;23.314;2024-02-14T04:18:02;7.90;88.20
20911;DHT22;10615;42.702;23.314;2024-02-14T04:19:04;7.90;88.30
20911;DHT22;10615;42.702;23.314;2024-02-14T04:20:06;7.90;88.40
20911;DHT22;10615;42.702;23.314;2024-02-14T04:21:09;7.80;88.40
20911;DHT22;10615;42.702;23.314;2024-02-14T04:22:10;7.80;88.50
20911;DHT22;10615;42.702;23.314;2024-02-14T04:23:11;7.70;88.60
20911;DHT22;10615;42.702;23.314;2024-02-14T04:24:12;7.70;88.60
20911;DHT22;10615;42.702;23.314;2024-02-14T04:25:13;7.70;88.90
20911;DHT22;10615;42.702;23.314;2024-02-14T04:26:20;7.70;88.90
20911;DHT22;10615;42.702;23.314;2024-02-14T04:27:21;7.70;88.90
20911;DHT22;10615;42.702;23.314;2024-02-14T04:28:22;7.70;89.00
20911;DHT22;10615;42.702;23.314;2024-02-14T04:29:23;7.70;89.10
20911;DHT22;10615;42.702;23.314;2024-02-14T04:30:23;7.70;89.20
20911;DHT22;10615;42.702;23.314;2024-02-14T04:31:24;7.70;89.20
20911;DHT22;10615;42.702;23.314;2024-02-14T04:32:25;7.70;89.20
20911;DHT22;10615;42.702;23.314;2024-02-14T04:33:26;7.60;89.20
20911;DHT22;10615;42.702;23.314;2024-02-14T04:34:26;7.70;89.30
20911;DHT22;10615;42.702;23.314;2024-02-14T04:35:28;7.70;89.30
20911;DHT22;10615;42.702;23.314;2024-02-14T04:36:28;7.60;89.30
20911;DHT22;10615;42.702;23.314;2024-02-14T04:37:30;7.60;89.40
20911;DHT22;10615;42.702;23.314;2024-02-14T04:38:31;7.60;89.60
20911;DHT22;10615;42.702;23.314;2024-02-14T04:39:32;7.70;89.60
20911;DHT22;10615;42.702;23.314;2024-02-14T04:40:32;7.60;89.50
20911;DHT22;10615;42.702;23.314;2024-02-14T04:41:33;7.60;89.50
20911;DHT22;10615;42.702;23.314;2024-02-14T04:42:37;7.60;89.60
20911;DHT22;10615;42.702;23.314;2024-02-14T04:43:38;7.60;89.40
20911;DHT22;10615;42.702;23.314;2024-02-14T04:44:39;7.70;89.40
20911;DHT22;10615;42.702;23.314;2024-02-14T04:45:40;7.60;89.30
20911;DHT22;10615;42.702;23.314;2024-02-14T04:46:41;7.70;89.50
20911;DHT22;10615;42.702;23.314;2024-02-14T04:47:44;7.70;89.50
20911;DHT22;10615;42.702;23.314;2024-02-14T04:48:45;7.70;89.50
20911;DHT22;10615;42.702;23.314;2024-02-14T04:49:45;7.60;89.70
20911;DHT22;10615;42.702;23.314;2024-02-14T04:50:46;7.60;89.70
20911;DHT22;10615;42.702;23.314;2024-02-14T04:51:47;7.60;89.60
20911;DHT22;10615;42.702;23.314;2024-02-14T04:52:48;7.60;89.50
20911;DHT22;10615;42.702;23.314;2024-02-14T04:53:49;7.50;89.50
20911;DHT22;10615;42.702;23.314;2024-02-14T04:54:49;7.60;89.70
20911;DHT22;10615;42.702;23.314;2024-02-14T04:55:50;7.50;89.60
20911;DHT22;10615;42.702;23.314;2024-02-14T04:56:51;7.60;89.80
20911;DHT22;10615;42.702;23.314;2024-02-14T04:57:52;7.50;89.70
20911;DHT22;10615;42.702;23.314;2024-02-14T04:58:53;7.50;89.90
20911;DHT22;10615;42.702;23.314;2024-02-14T04:59:55;7.50;89.90
20911;DHT22;10615;42.702;23.314;2024-02-14T05:00:56;7.50;89.90
20911;DHT22;10615;42.702;23.314;2024-02-14T05:01:57;7.50;89.90
20911;DHT22;10615;42.702;23.314;2024-02-14T05:02:57;7.60;90.00
20911;DHT22;10615;42.702;23.314;2024-02-14T05:03:58;7.60;90.00
20911;DHT22;10615;42.702;23.314;2024-02-14T05:04:59;7.50;89.90
20911;DHT22;10615;42.702;23.314;2024-02-14T05:06:00;7.60;90.00
20911;DHT22;10615;42.702;23.314;2024-02-14T05:07:03;7.60;90.00
20911;DHT22;10615;42.702;23.314;2024-02-14T05:08:04;7.60;90.00
20911;DHT22;10615;42.702;23.314;2024-02-14T05:09:06;7.70;90.00
20911;DHT22;10615;42.702;23.314;2024-02-14T05:10:07;7.70;90.00
20911;DHT22;10615;42.702;23.314;2024-02-14T05:11:08;7.70;90.00
20911;DHT22;10615;42.702;23.314;2024-02-14T05:12:09;7.70;89.90
20911;DHT22;10615;42.702;23.314;2024-02-14T05:13:11;7.70;89.80
20911;DHT22;10615;42.702;23.314;2024-02-14T05:14:11;7.70;89.80
20911;DHT22;10615;42.702;23.314;2024-02-14T05:15:12;7.80;90.00
20911;DHT22;10615;42.702;23.314;2024-02-14T05:16:13;7.80;89.80
20911;DHT22;10615;42.702;23.314;2024-02-14T05:17:14;7.80;89.80
20911;DHT22;10615;42.702;23.314;2024-02-14T05:18:15;7.80;89.70
20911;DHT22;10615;42.702;23.314;2024-02-14T05:19:16;7.80;89.60
20911;DHT22;10615;42.702;23.314;2024-02-14T05:20:17;7.80;89.50
20911;DHT22;10615;42.702;23.314;2024-02-14T05:21:20;7.80;89.30
20911;DHT22;10615;42.702;23.314;2024-02-14T05:22:22;7.80;89.30
20911;DHT22;10615;42.702;23.314;2024-02-14T05:23:23;7.80;89.30
20911;DHT22;10615;42.702;23.314;2024-02-14T05:24:24;7.80;89.40
20911;DHT22;10615;42.702;23.314;2024-02-14T05:25:27;7.90;89.50
20911;DHT22;10615;42.702;23.314;2024-02-14T05:26:30;7.80;89.40
20911;DHT22;10615;42.702;23.314;2024-02-14T05:27:31;7.80;89.40
20911;DHT22;10615;42.702;23.314;2024-02-14T05:28:32;7.80;89.40
20911;DHT22;10615;42.702;23.314;2024-02-14T05:29:33;7.80;89.50
20911;DHT22;10615;42.702;23.314;2024-02-14T05:30:34;7.80;89.40
20911;DHT22;10615;42.702;23.314;2024-02-14T05:31:44;7.80;89.20
20911;DHT22;10615;42.702;23.314;2024-02-14T05:32:45;7.80;89.20
20911;DHT22;10615;42.702;23.314;2024-02-14T05:33:46;7.80;89.10
20911;DHT22;10615;42.702;23.314;2024-02-14T05:34:46;7.80;89.00
20911;DHT22;10615;42.702;23.314;2024-02-14T05:35:51;7.80;89.10
20911;DHT22;10615;42.702;23.314;2024-02-14T05:36:52;7.80;89.20
20911;DHT22;10615;42.702;23.314;2024-02-14T05:37:53;7.90;89.20
20911;DHT22;10615;42.702;23.314;2024-02-14T05:38:54;7.90;89.20
20911;DHT22;10615;42.702;23.314;2024-02-14T05:39:55;7.90;89.00
20911;DHT22;10615;42.702;23.314;2024-02-14T05:40:56;7.90;88.90
20911;DHT22;10615;42.702;23.314;2024-02-14T05:41:57;7.90;88.90
20911;DHT22;10615;42.702;23.314;2024-02-14T05:42:57;7.90;88.80
20911;DHT22;10615;42.702;23.314;2024-02-14T05:43:59;7.90;88.70
20911;DHT22;10615;42.702;23.314;2024-02-14T05:45:00;7.90;88.90
20911;DHT22;10615;42.702;23.314;2024-02-14T05:46:03;8.00;89.00
20911;DHT22;10615;42.702;23.314;2024-02-14T05:47:04;8.00;88.90
20911;DHT22;10615;42.702;23.314;2024-02-14T05:48:05;7.90;88.80
20911;DHT22;10615;42.702;23.314;2024-02-14T05:49:06;8.00;88.80
20911;DHT22;10615;42.702;23.314;2024-02-14T05:50:07;7.90;88.60
20911;DHT22;10615;42.702;23.314;2024-02-14T05:51:09;8.00;88.60
20911;DHT22;10615;42.702;23.314;2024-02-14T05:52:10;8.00;88.40
20911;DHT22;10615;42.702;23.314;2024-02-14T05:53:10;7.90;88.20
20911;DHT22;10615;42.702;23.314;2024-02-14T05:54:12;8.00;88.30
20911;DHT22;10615;42.702;23.314;2024-02-14T05:55:13;7.90;88.30
20911;DHT22;10615;42.702;23.314;2024-02-14T05:56:15;7.90;88.30
20911;DHT22;10615;42.702;23.314;2024-02-14T05:57:16;7.90;88.40
20911;DHT22;10615;42.702;23.314;2024-02-14T05:58:17;8.00;88.50
20911;DHT22;10615;42.702;23.314;2024-02-14T05:59:17;8.00;88.40
20911;DHT22;10615;42.702;23.314;2024-02-14T06:00:19;8.00;88.20
20911;DHT22;10615;42.702;23.314;2024-02-14T06:01:20;7.90;88.00
20911;DHT22;10615;42.702;23.314;2024-02-14T06:02:21;7.90;88.10
20911;DHT22;10615;42.702;23.314;2024-02-14T06:03:22;7.90;88.10
20911;DHT22;10615;42.702;23.314;2024-02-14T06:04:23;7.90;88.20
20911;DHT22;10615;42.702;23.314;2024-02-14T06:05:24;7.90;88.30
20911;DHT22;10615;42.702;23.314;2024-02-14T06:06:25;7.90;89.20
20911;DHT22;10615;42.702;23.314;2024-02-14T06:07:25;7.90;88.20
20911;DHT22;10615;42.702;23.314;2024-02-14T06:08:26;7.90;88.10
20911;DHT22;10615;42.702;23.314;2024-02-14T06:09:27;7.80;87.80
20911;DHT22;10615;42.702;23.314;2024-02-14T06:10:28;7.80;87.80
20911;DHT22;10615;42.702;23.314;2024-02-14T06:11:29;7.80;87.80
20911;DHT22;10615;42.702;23.314;2024-02-14T06:12:29;7.80;87.80
20911;DHT22;10615;42.702;23.314;2024-02-14T06:13:30;7.80;87.60
20911;DHT22;10615;42.702;23.314;2024-02-14T06:14:31;7.80;87.50
20911;DHT22;10615;42.702;23.314;2024-02-14T06:15:34;7.80;87.60
20911;DHT22;10615;42.702;23.314;2024-02-14T06:16:35;7.80;87.60
20911;DHT22;10615;42.702;23.314;2024-02-14T06:17:35;7.80;87.60
20911;DHT22;10615;42.702;23.314;2024-02-14T06:18:36;7.80;87.50
20911;DHT22;10615;42.702;23.314;2024-02-14T06:19:37;7.80;87.50
20911;DHT22;10615;42.702;23.314;2024-02-14T06:20:39;7.80;87.50
20911;DHT22;10615;42.702;23.314;2024-02-14T06:21:40;7.80;87.50
20911;DHT22;10615;42.702;23.314;2024-02-14T06:22:41;7.80;87.50
20911;DHT22;10615;42.702;23.314;2024-02-14T06:23:42;7.80;87.40
20911;DHT22;10615;42.702;23.314;2024-02-14T06:24:43;7.80;87.20
20911;DHT22;10615;42.702;23.314;2024-02-14T06:25:44;7.80;86.90
20911;DHT22;10615;42.702;23.314;2024-02-14T06:26:45;7.80;87.00